Time;durP1;ratioP1;P1;durP2;ratioP2;P2;SDS_P1;SDS_P2;PMS_P1;PMS_P2;Temp;Humidity;BMP_temperature;BMP_pressure;BME280_temperature;BME280_humidity;BME280_pressure;Samples;Min_cycle;Max_cycle;Signal;HPM_P1;HPM_P2
2023/04/01 00:00:58;;;;;;;14.60;11.80;;;;;;;10.39;86.18;98505.69;102544;277;96976;-58
2023/04/01 00:03:34;;;;;;;14.50;11.60;;;;;;;10.39;86.12;98507.73;102564;277;97166;-54
2023/04/01 00:06:13;;;;;;;15.70;12.10;;;;;;;10.41;85.99;98498.55;102582;277;121084;-59
2023/04/01 00:08:55;;;;;;;19.40;12.30;;;;;;;10.41;86.19;98496.55;102560;277;105583;-58
2023/04/01 00:11:38;;;;;;;16.20;12.60;;;;;;;10.43;85.97;98497.14;102535;277;113749;-61
2023/04/01 00:14:22;;;;;;;15.70;12.50;;;;;;;10.42;86.12;98493.83;102549;277;97548;-60
2023/04/01 00:17:04;;;;;;;17.00;12.40;;;;;;;10.46;86.18;98494.30;102578;277;98498;-55
2023/04/01 00:19:48;;;;;;;14.30;12.60;;;;;;;10.47;86.23;98491.84;102519;277;121357;-55
2023/04/01 00:22:26;;;;;;;;;;;;;;;10.52;86.28;98489.45;102544;277;105051;-55
2023/04/01 00:25:03;;;;;;;15.40;12.10;;;;;;;10.49;86.31;98490.09;102525;277;113825;-55
2023/04/01 00:27:40;;;;;;;;;;;;;;;10.44;86.28;98487.43;102571;277;97203;-55
2023/04/01 00:30:16;;;;;;;16.50;11.90;;;;;;;10.36;86.15;98482.69;102518;277;96706;-54
2023/04/01 00:32:54;;;;;;;16.80;12.40;;;;;;;10.34;85.99;98480.61;102534;277;120061;-54
2023/04/01 00:35:33;;;;;;;15.90;13.30;;;;;;;10.27;86.17;98477.23;102532;277;105592;-54
2023/04/01 00:38:13;;;;;;;15.40;12.10;;;;;;;10.24;86.09;98481.08;102534;277;114339;-56
2023/04/01 00:40:49;;;;;;;17.80;13.30;;;;;;;10.24;86.06;98479.38;102511;277;95867;-55
2023/04/01 00:43:35;;;;;;;16.90;12.40;;;;;;;10.22;86.12;98476.83;102507;277;96993;-60
2023/04/01 00:46:19;;;;;;;18.90;13.90;;;;;;;10.22;86.28;98479.04;102515;277;119532;-55
2023/04/01 00:49:02;;;;;;;18.40;14.20;;;;;;;10.24;86.33;98478.08;102517;277;106165;-55
2023/04/01 00:51:43;;;;;;;17.10;14.10;;;;;;;10.26;86.29;98474.02;102521;277;115088;-59
2023/04/01 00:54:26;;;;;;;16.90;14.20;;;;;;;10.31;86.38;98470.83;102523;277;96141;-60
2023/04/01 00:57:12;;;;;;;19.20;13.60;;;;;;;10.35;86.59;98473.15;102485;277;98346;-55
2023/04/01 00:59:53;;;;;;;19.30;14.90;;;;;;;10.38;86.39;98471.98;102510;277;119786;-55
2023/04/01 01:02:28;;;;;;;19.40;14.60;;;;;;;10.36;86.46;98469.20;102503;277;105195;-55
2023/04/01 01:05:08;;;;;;;18.80;14.20;;;;;;;10.34;86.50;98462.01;102456;278;117172;-53
2023/04/01 01:07:48;;;;;;;21.20;15.30;;;;;;;10.34;86.57;98463.08;102512;277;96476;-59
2023/04/01 01:10:31;;;;;;;19.60;15.40;;;;;;;10.29;86.62;98460.97;102525;277;98390;-58
2023/04/01 01:13:16;;;;;;;17.60;15.60;;;;;;;10.29;86.56;98459.30;102520;277;120241;-59
2023/04/01 01:16:01;;;;;;;18.50;15.90;;;;;;;10.28;86.67;98463.98;102508;277;105184;-59
2023/04/01 01:18:48;;;;;;;17.90;14.80;;;;;;;10.27;86.71;98466.11;102601;277;114592;-57
2023/04/01 01:22:03;;;;;;;17.60;15.00;;;;;;;10.23;86.92;98469.79;102589;278;95088;-60
2023/04/01 01:25:01;;;;;;;17.50;14.70;;;;;;;10.32;86.96;98468.02;102534;278;96694;-60
2023/04/01 01:27:43;;;;;;;19.50;16.10;;;;;;;10.36;86.87;98466.24;102546;278;120398;-61
2023/04/01 01:30:39;;;;;;;18.90;15.70;;;;;;;10.38;86.76;98467.44;102586;277;105830;-60
2023/04/01 01:33:50;;;;;;;21.50;15.60;;;;;;;10.37;86.85;98471.53;102519;278;114285;-60
2023/04/01 01:36:34;;;;;;;20.00;15.60;;;;;;;10.39;86.94;98472.74;102565;277;96328;-55
2023/04/01 01:39:16;;;;;;;18.50;15.20;;;;;;;10.42;86.92;98472.70;102554;278;97647;-54
2023/04/01 01:42:02;;;;;;;18.80;15.20;;;;;;;10.41;86.79;98475.62;102517;278;121128;-58
2023/04/01 01:44:41;;;;;;;19.60;15.70;;;;;;;10.42;86.88;98475.96;102532;278;105539;-60
2023/04/01 01:47:27;;;;;;;18.20;15.10;;;;;;;10.42;86.79;98476.27;102569;277;114803;-56
2023/04/01 01:50:04;;;;;;;18.30;15.20;;;;;;;10.41;87.00;98476.73;102511;277;97402;-55
2023/04/01 01:52:46;;;;;;;18.90;15.50;;;;;;;10.44;87.02;98475.07;102541;278;98041;-59
2023/04/01 01:55:36;;;;;;;17.80;15.50;;;;;;;10.43;86.86;98473.38;102517;277;120133;-58
2023/04/01 01:58:21;;;;;;;20.60;17.10;;;;;;;10.46;86.97;98474.95;102561;278;104936;-58
2023/04/01 02:01:00;;;;;;;19.50;16.00;;;;;;;10.48;86.90;98469.63;102515;277;114711;-56
2023/04/01 02:03:39;;;;;;;18.60;15.40;;;;;;;10.50;86.93;98465.66;102538;278;96850;-54
2023/04/01 02:06:19;;;;;;;20.40;16.70;;;;;;;10.52;86.80;98465.12;102528;278;97791;-58
2023/04/01 02:09:02;;;;;;;19.70;16.40;;;;;;;10.51;86.89;98461.36;102537;278;118513;-60
2023/04/01 02:11:49;;;;;;;18.70;16.10;;;;;;;10.53;86.79;98459.84;102529;277;105485;-54
2023/04/01 02:14:36;;;;;;;21.10;16.30;;;;;;;10.52;86.84;98452.70;102490;277;114371;-55
2023/04/01 02:17:20;;;;;;;19.60;16.50;;;;;;;10.52;86.80;98447.68;102496;270;96832;-60
2023/04/01 02:20:04;;;;;;;18.70;16.60;;;;;;;10.54;86.79;98447.52;102510;278;98594;-60
2023/04/01 02:22:46;;;;;;;20.00;16.60;;;;;;;10.54;86.79;98438.91;102548;278;120933;-61
2023/04/01 02:25:28;;;;;;;23.50;18.30;;;;;;;10.54;86.90;98438.42;102482;277;106023;-60
2023/04/01 02:28:10;;;;;;;20.60;17.40;;;;;;;10.46;87.01;98439.56;102529;277;114789;-60
2023/04/01 02:30:53;;;;;;;20.60;17.10;;;;;;;10.48;86.90;98438.08;102507;278;96449;-60
2023/04/01 02:33:28;;;;;;;20.80;17.50;;;;;;;10.45;87.06;98437.09;102514;278;96649;-60
2023/04/01 02:36:02;;;;;;;20.80;17.60;;;;;;;10.40;87.14;98434.60;102535;278;121019;-55
2023/04/01 02:38:41;;;;;;;23.00;18.40;;;;;;;10.39;87.24;98437.95;102551;278;103520;-54
2023/04/01 02:41:23;;;;;;;21.60;18.70;;;;;;;10.42;87.27;98432.50;102562;278;113827;-54
2023/04/01 02:43:59;;;;;;;22.90;19.00;;;;;;;10.47;87.21;98432.35;102530;278;96575;-53
2023/04/01 02:46:33;;;;;;;22.20;18.60;;;;;;;10.48;87.21;98432.91;102678;278;97682;-53
2023/04/01 02:49:12;;;;;;;24.10;20.30;;;;;;;10.47;87.22;98435.20;102596;277;121308;-53
2023/04/01 02:51:51;;;;;;;25.40;18.50;;;;;;;10.42;87.27;98438.56;102631;278;104131;-54
2023/04/01 02:54:31;;;;;;;24.00;18.70;;;;;;;10.40;87.28;98434.72;101207;278;1862609;-55
2023/04/01 02:57:07;;;;;;;22.00;18.00;;;;;;;10.40;87.41;98435.52;102542;278;95894;-55
2023/04/01 02:59:48;;;;;;;24.20;18.10;;;;;;;10.37;87.27;98441.52;102472;278;97604;-55
2023/04/01 03:02:21;;;;;;;22.80;17.70;;;;;;;10.31;87.21;98443.70;102528;278;119289;-58
2023/04/01 03:04:56;;;;;;;21.20;17.80;;;;;;;10.22;87.32;98447.04;102520;279;106386;-58
2023/04/01 03:07:36;;;;;;;23.00;18.20;;;;;;;10.20;87.37;98449.84;102551;278;114158;-58
2023/04/01 03:10:12;;;;;;;22.00;17.80;;;;;;;10.23;87.23;98452.02;102463;279;95455;-58
2023/04/01 03:12:49;;;;;;;23.70;19.20;;;;;;;10.26;87.51;98450.27;102548;278;98340;-56
2023/04/01 03:15:26;;;;;;;23.80;18.90;;;;;;;10.28;87.37;98450.20;102490;278;119754;-55
2023/04/01 03:18:04;;;;;;;22.10;18.60;;;;;;;10.26;87.55;98451.94;102453;278;105326;-55
2023/04/01 03:20:41;;;;;;;22.50;19.00;;;;;;;10.29;87.42;98457.29;102483;279;113058;-54
2023/04/01 03:23:17;;;;;;;22.60;19.30;;;;;;;10.29;87.51;98460.39;102477;278;95615;-56
2023/04/01 03:25:56;;;;;;;22.70;20.20;;;;;;;10.30;87.55;98463.98;102536;278;97583;-55
2023/04/01 03:28:37;;;;;;;22.50;20.10;;;;;;;10.32;87.56;98463.24;102476;278;121677;-59
2023/04/01 03:31:17;;;;;;;24.90;19.10;;;;;;;10.31;87.61;98459.98;102531;279;104940;-54
2023/04/01 03:33:56;;;;;;;21.10;17.80;;;;;;;10.31;87.66;98461.82;102463;278;114483;-55
2023/04/01 03:36:36;;;;;;;22.10;18.60;;;;;;;10.25;87.64;98463.04;102484;279;96477;-60
2023/04/01 03:39:13;;;;;;;19.50;17.10;;;;;;;10.28;87.77;98464.89;102498;278;97773;-59
2023/04/01 03:41:54;;;;;;;22.40;17.10;;;;;;;10.28;87.66;98462.08;102510;278;120468;-60
2023/04/01 03:44:33;;;;;;;20.10;17.30;;;;;;;10.30;87.63;98471.04;102458;278;104464;-60
2023/04/01 03:47:10;;;;;;;24.70;17.10;;;;;;;10.26;87.61;98468.13;102520;278;113075;-54
2023/04/01 03:49:52;;;;;;;20.20;16.30;;;;;;;10.26;87.61;98471.57;102490;278;97391;-54
2023/04/01 03:52:33;;;;;;;20.10;15.70;;;;;;;10.24;87.55;98473.05;102506;279;97864;-54
2023/04/01 03:55:08;;;;;;;21.10;16.20;;;;;;;10.22;87.59;98476.23;102493;278;120648;-54
2023/04/01 03:57:42;;;;;;;18.40;15.70;;;;;;;10.21;87.54;98482.63;102541;278;105770;-55
2023/04/01 04:00:18;;;;;;;18.90;15.10;;;;;;;10.16;87.49;98484.83;102537;278;113552;-55
2023/04/01 04:02:57;;;;;;;19.50;16.00;;;;;;;10.14;87.56;98484.56;102520;278;96171;-58
2023/04/01 04:05:37;;;;;;;18.90;14.40;;;;;;;10.11;87.69;98489.98;102472;278;97537;-59
2023/04/01 04:08:14;;;;;;;17.70;15.20;;;;;;;10.03;87.76;98494.81;102505;278;121273;-59
2023/04/01 04:10:55;;;;;;;17.20;15.20;;;;;;;10.06;87.79;98496.70;102532;267;104557;-59
2023/04/01 04:13:34;;;;;;;21.10;15.40;;;;;;;10.02;87.67;98500.13;102531;278;114075;-60
2023/04/01 04:16:10;;;;;;;18.20;15.30;;;;;;;10.04;87.80;98502.98;102515;266;96486;-55
2023/04/01 04:18:47;;;;;;;18.50;15.50;;;;;;;10.06;87.81;98500.42;102509;278;96610;-55
2023/04/01 04:21:25;;;;;;;17.40;14.80;;;;;;;9.99;87.91;98504.63;102499;278;119563;-55
2023/04/01 04:24:02;;;;;;;18.20;13.90;;;;;;;9.96;87.95;98505.52;102492;278;103781;-53
2023/04/01 04:26:40;;;;;;;18.30;14.40;;;;;;;9.93;88.04;98508.45;102429;278;113418;-60
2023/04/01 04:29:14;;;;;;;19.40;14.10;;;;;;;9.97;87.99;98510.58;102492;279;96514;-59
2023/04/01 04:31:52;;;;;;;18.00;14.10;;;;;;;10.01;87.92;98510.77;102509;278;97977;-59
2023/04/01 04:34:29;;;;;;;16.30;13.40;;;;;;;10.04;87.94;98515.27;102526;278;119998;-59
2023/04/01 04:37:05;;;;;;;15.90;13.70;;;;;;;10.06;87.81;98514.95;102489;279;106096;-54
2023/04/01 04:39:40;;;;;;;16.20;13.50;;;;;;;10.10;87.92;98515.15;102480;278;114299;-54
2023/04/01 04:42:15;;;;;;;15.30;12.30;;;;;;;10.06;87.90;98519.56;102468;278;95850;-55
2023/04/01 04:44:49;;;;;;;16.60;13.10;;;;;;;10.12;87.77;98521.02;102495;278;96975;-55
2023/04/01 04:47:26;;;;;;;16.00;13.40;;;;;;;10.11;87.63;98520.02;102527;278;121857;-55
2023/04/01 04:50:01;;;;;;;17.40;14.20;;;;;;;10.07;87.65;98524.36;102469;278;104153;-55
2023/04/01 04:52:46;;;;;;;16.40;13.00;;;;;;;10.08;87.73;98521.15;102479;278;114736;-55
2023/04/01 04:55:33;;;;;;;15.60;13.20;;;;;;;10.06;87.72;98520.60;102466;278;96329;-53
2023/04/01 04:58:10;;;;;;;15.50;12.50;;;;;;;10.03;87.66;98525.76;102522;278;98881;-54
2023/04/01 05:00:49;;;;;;;14.90;13.10;;;;;;;10.02;87.73;98527.21;102495;267;118958;-54
2023/04/01 05:03:24;;;;;;;14.40;11.80;;;;;;;10.03;87.74;98526.30;102505;278;103465;-60
2023/04/01 05:06:00;;;;;;;14.50;11.40;;;;;;;10.04;87.64;98526.23;102511;278;112648;-60
2023/04/01 05:08:39;;;;;;;14.90;12.10;;;;;;;10.03;87.59;98530.58;102491;279;95930;-59
2023/04/01 05:11:17;;;;;;;14.80;12.20;;;;;;;9.98;87.70;98529.33;102509;278;98226;-55
2023/04/01 05:13:58;;;;;;;14.00;11.20;;;;;;;10.01;87.68;98530.05;102486;279;119846;-54
2023/04/01 05:16:35;;;;;;;13.90;12.20;;;;;;;9.94;87.69;98527.68;102531;278;105658;-55
2023/04/01 05:19:11;;;;;;;13.50;11.00;;;;;;;9.94;87.74;98524.90;102545;278;114835;-55
2023/04/01 05:21:48;;;;;;;12.90;10.90;;;;;;;10.00;87.59;98527.95;102508;278;95646;-60
2023/04/01 05:24:22;;;;;;;13.20;11.10;;;;;;;10.00;87.60;98530.11;102543;267;98102;-60
2023/04/01 05:26:59;;;;;;;15.00;11.50;;;;;;;10.01;87.70;98530.67;102502;278;119881;-55
2023/04/01 05:29:35;;;;;;;12.60;10.60;;;;;;;10.02;87.68;98530.49;102522;278;103359;-54
2023/04/01 05:32:10;;;;;;;12.50;10.70;;;;;;;10.04;87.87;98530.81;102468;278;114898;-58
2023/04/01 05:34:51;;;;;;;12.80;10.70;;;;;;;10.11;87.93;98530.30;102507;278;97003;-58
2023/04/01 05:37:30;;;;;;;13.20;10.70;;;;;;;10.25;87.99;98529.80;102504;278;97358;-58
2023/04/01 05:40:12;;;;;;;12.10;10.30;;;;;;;10.44;88.07;98530.48;102489;278;119713;-58
2023/04/01 05:42:47;;;;;;;12.10;9.90;;;;;;;10.68;87.73;98525.00;102537;278;105439;-60
2023/04/01 05:45:23;;;;;;;10.80;9.70;;;;;;;10.94;87.29;98526.06;102496;278;114460;-58
2023/04/01 05:48:08;;;;;;;10.90;9.80;;;;;;;11.09;87.16;98524.22;102524;278;94972;-55
2023/04/01 05:50:46;;;;;;;10.80;9.60;;;;;;;11.32;86.87;98525.70;102495;278;98549;-55
2023/04/01 05:53:24;;;;;;;12.00;9.80;;;;;;;11.57;86.65;98531.28;102471;278;120621;-60
2023/04/01 05:56:09;;;;;;;9.50;8.50;;;;;;;11.81;86.18;98531.77;102531;278;104111;-58
2023/04/01 05:58:52;;;;;;;10.80;9.30;;;;;;;11.90;85.76;98534.33;102513;278;112975;-59
2023/04/01 06:01:36;;;;;;;9.20;8.30;;;;;;;11.93;85.85;98530.48;102522;278;93014;-55
2023/04/01 06:04:19;;;;;;;11.20;8.70;;;;;;;12.00;85.71;98531.75;102488;278;97264;-54
2023/04/01 06:06:53;;;;;;;9.70;8.80;;;;;;;12.31;85.91;98527.84;102504;278;120499;-61
2023/04/01 06:09:33;;;;;;;8.70;7.80;;;;;;;12.67;85.55;98529.00;102511;278;105897;-60
2023/04/01 06:12:37;;;;;;;8.60;7.80;;;;;;;12.78;84.86;98529.38;102488;278;113641;-60
2023/04/01 06:15:34;;;;;;;8.80;7.30;;;;;;;12.74;84.70;98529.44;102487;279;94073;-60
2023/04/01 06:18:59;;;;;;;8.10;7.30;;;;;;;12.78;84.02;98534.42;102554;278;97342;-55
2023/04/01 06:22:02;;;;;;;8.80;7.80;;;;;;;12.63;83.41;98539.29;102518;278;120647;-58
2023/04/01 06:25:05;;;;;;;8.30;7.10;;;;;;;12.68;83.37;98540.60;102492;278;107336;-59
2023/04/01 06:28:02;;;;;;;9.00;7.50;;;;;;;12.84;83.30;98542.59;102483;278;114337;-54
2023/04/01 06:30:53;;;;;;;7.40;6.70;;;;;;;12.99;83.28;98543.44;102530;278;94642;-54
2023/04/01 06:33:57;;;;;;;7.80;6.30;;;;;;;12.93;83.11;98545.48;102522;278;97280;-58
2023/04/01 06:37:00;;;;;;;6.60;5.90;;;;;;;12.85;82.66;98550.98;102519;278;121278;-59
2023/04/01 06:40:07;;;;;;;9.50;5.10;;;;;;;12.77;82.54;98546.98;102518;278;105648;-59
2023/04/01 06:43:01;;;;;;;5.80;5.10;;;;;;;12.74;82.31;98548.29;102527;278;114776;-59
2023/04/01 06:45:47;;;;;;;5.30;4.50;;;;;;;12.70;82.27;98546.93;102350;279;94418;-54
2023/04/01 06:49:16;;;;;;;5.30;4.10;;;;;;;12.67;81.84;98548.71;102534;290;97747;-59
2023/04/01 06:52:03;;;;;;;4.20;3.80;;;;;;;12.63;81.91;98548.98;102546;278;120092;-57
2023/04/01 06:54:42;;;;;;;4.10;3.40;;;;;;;12.63;81.27;98550.39;102534;278;104169;-59
2023/04/01 06:57:32;;;;;;;4.30;3.60;;;;;;;12.58;81.30;98551.13;102524;279;114607;-59
2023/04/01 07:00:21;;;;;;;4.20;3.10;;;;;;;12.58;81.18;98547.63;102528;278;94691;-60
2023/04/01 07:03:08;;;;;;;4.30;3.60;;;;;;;12.67;81.48;98550.88;102540;278;97118;-54
2023/04/01 07:05:45;;;;;;;4.00;3.20;;;;;;;12.88;81.60;98549.04;102537;278;119092;-54
2023/04/01 07:08:36;;;;;;;3.60;2.90;;;;;;;13.12;81.65;98549.92;102539;278;104470;-58
2023/04/01 07:11:22;;;;;;;3.90;3.30;;;;;;;13.22;80.99;98550.14;102470;278;114645;-58
2023/04/01 07:14:11;;;;;;;5.10;3.50;;;;;;;13.28;81.26;98555.37;102516;278;95302;-58
2023/04/01 07:16:53;;;;;;;5.60;4.30;;;;;;;13.30;81.13;98553.78;102491;278;97070;-58
2023/04/01 07:19:40;;;;;;;4.80;4.20;;;;;;;13.18;80.32;98554.76;102467;279;119942;-58
2023/04/01 07:22:33;;;;;;;6.10;5.00;;;;;;;13.17;80.66;98555.66;102501;278;106053;-59
2023/04/01 07:25:20;;;;;;;6.10;5.50;;;;;;;13.28;80.39;98555.10;102491;278;114229;-60
2023/04/01 07:28:02;;;;;;;7.70;6.70;;;;;;;13.14;80.41;98557.84;102488;266;97446;-54
2023/04/01 07:31:07;;;;;;;7.70;6.70;;;;;;;12.97;80.38;98555.89;102491;278;98396;-55
2023/04/01 07:33:50;;;;;;;8.90;8.00;;;;;;;12.87;80.60;98552.95;102500;278;121086;-58
2023/04/01 07:36:36;;;;;;;10.20;9.20;;;;;;;12.87;80.50;98549.85;102516;279;105756;-55
2023/04/01 07:39:33;;;;;;;10.90;9.80;;;;;;;13.09;80.75;98549.95;102468;278;114319;-54
2023/04/01 07:42:19;;;;;;;11.90;10.70;;;;;;;13.43;80.40;98548.51;102478;278;96584;-61
2023/04/01 07:45:07;;;;;;;12.00;10.80;;;;;;;13.81;80.28;98550.77;102495;278;97317;-60
2023/04/01 07:48:14;;;;;;;10.90;9.80;;;;;;;14.21;80.21;98550.65;102474;278;118857;-56
2023/04/01 07:51:00;;;;;;;12.60;11.40;;;;;;;14.50;79.92;98551.86;102496;278;105828;-54
2023/04/01 07:53:52;;;;;;;11.60;10.50;;;;;;;14.43;78.97;98555.98;102478;278;114279;-55
2023/04/01 07:56:42;;;;;;;14.20;12.80;;;;;;;14.17;78.12;98554.69;102493;279;93525;-54
2023/04/01 07:59:25;;;;;;;14.40;13.00;;;;;;;13.90;78.03;98553.71;102507;278;98766;-54
2023/04/01 08:02:12;;;;;;;15.50;14.00;;;;;;;13.64;78.14;98555.60;102484;278;121025;-60
2023/04/01 08:05:05;;;;;;;16.20;14.60;;;;;;;13.33;78.34;98558.59;102498;278;105393;-60
2023/04/01 08:07:51;;;;;;;17.10;15.30;;;;;;;13.09;78.17;98559.92;102543;278;114380;-59
2023/04/01 08:10:39;;;;;;;16.10;14.50;;;;;;;13.03;78.67;98561.22;102477;279;95539;-58
2023/04/01 08:13:31;;;;;;;15.70;14.20;;;;;;;13.11;78.94;98564.35;102511;278;97846;-59
2023/04/01 08:16:19;;;;;;;14.40;13.00;;;;;;;13.23;79.41;98563.27;102516;278;119664;-56
2023/04/01 08:19:13;;;;;;;16.00;13.10;;;;;;;13.40;79.62;98567.29;102479;278;104353;-54
2023/04/01 08:21:58;;;;;;;13.20;12.00;;;;;;;13.72;79.95;98562.48;102471;278;115274;-60
2023/04/01 08:24:46;;;;;;;13.10;11.70;;;;;;;14.06;79.62;98564.04;102472;279;94087;-59
2023/04/01 08:27:32;;;;;;;12.10;10.90;;;;;;;14.54;79.02;98569.17;102497;279;95378;-59
2023/04/01 08:30:20;;;;;;;12.10;10.60;;;;;;;15.08;78.57;98567.17;102475;278;120433;-59
2023/04/01 08:33:01;;;;;;;10.60;9.50;;;;;;;15.26;77.56;98566.30;102498;278;105661;-58
2023/04/01 08:35:46;;;;;;;11.60;10.40;;;;;;;15.17;77.15;98566.02;102444;278;113531;-59
2023/04/01 08:38:30;;;;;;;12.10;10.90;;;;;;;14.85;76.85;98569.14;102484;278;92164;-59
2023/04/01 08:41:47;;;;;;;11.80;10.60;;;;;;;14.68;76.85;98571.20;102533;278;96399;-55
2023/04/01 08:45:01;;;;;;;11.90;10.70;;;;;;;14.51;76.77;98576.31;102498;279;120031;-55
2023/04/01 08:48:25;;;;;;;11.50;10.40;;;;;;;14.22;76.25;98578.74;102508;278;105151;-59
2023/04/01 08:51:38;;;;;;;12.60;11.30;;;;;;;13.91;76.19;98581.73;102180;279;113512;-56
2023/04/01 08:54:46;;;;;;;12.30;11.10;;;;;;;13.73;76.54;98583.70;102500;278;94435;-55
2023/04/01 08:57:39;;;;;;;11.70;10.60;;;;;;;13.59;76.89;98585.05;102498;278;98213;-59
2023/04/01 09:00:32;;;;;;;10.80;9.70;;;;;;;13.51;76.36;98585.39;102536;278;119653;-58
2023/04/01 09:03:46;;;;;;;12.00;10.80;;;;;;;13.39;76.47;98581.83;102504;278;104976;-55
2023/04/01 09:07:03;;;;;;;12.30;10.10;;;;;;;13.38;76.53;98583.86;102441;278;114576;-59
2023/04/01 09:10:16;;;;;;;10.60;9.50;;;;;;;13.34;76.66;98583.34;102477;278;94178;-59
2023/04/01 09:13:20;;;;;;;10.20;9.20;;;;;;;13.30;76.81;98587.71;102536;278;97395;-59
2023/04/01 09:16:42;;;;;;;9.20;7.90;;;;;;;13.42;76.63;98590.04;102468;278;120382;-56
2023/04/01 09:19:45;;;;;;;10.50;8.30;;;;;;;13.60;76.93;98588.80;102477;278;105736;-56
2023/04/01 09:22:49;;;;;;;8.60;7.40;;;;;;;13.76;76.51;98587.20;102473;278;114648;-55
2023/04/01 09:26:08;;;;;;;8.70;7.80;;;;;;;13.82;75.83;98586.79;102495;278;93803;-55
2023/04/01 09:28:58;;;;;;;9.70;8.40;;;;;;;13.78;76.05;98589.41;102503;279;98409;-59
2023/04/01 09:32:15;;;;;;;12.90;10.20;;;;;;;13.86;76.63;98590.90;102505;278;120057;-58
2023/04/01 09:35:21;;;;;;;8.50;7.60;;;;;;;13.91;75.93;98594.28;102516;279;106845;-58
2023/04/01 09:38:19;;;;;;;7.70;6.90;;;;;;;13.73;75.36;98595.96;102523;278;113293;-54
2023/04/01 09:40:59;;;;;;;8.00;6.80;;;;;;;13.41;75.13;98599.42;102494;278;94525;-56
2023/04/01 09:43:58;;;;;;;6.90;6.20;;;;;;;13.27;75.47;98601.14;102501;278;96731;-60
2023/04/01 09:46:55;;;;;;;7.40;6.60;;;;;;;13.20;75.48;98606.29;102478;279;121184;-55
2023/04/01 09:50:05;;;;;;;;;;;;;;;13.12;75.83;98608.19;102524;278;103662;-56
2023/04/01 09:52:51;;;;;;;7.00;6.30;;;;;;;13.11;75.75;98609.31;102477;278;114635;-55
2023/04/01 09:59:27;;;;;;;8.00;7.00;;;;;;;13.26;76.23;98603.45;100501;305;619915;-61
2023/04/01 10:02:35;;;;;;;8.20;6.90;;;;;;;13.46;76.30;98605.13;101446;288;94585;-60
2023/04/01 10:06:07;;;;;;;8.40;7.40;;;;;;;13.66;76.35;98608.15;101791;288;98164;-60
2023/04/01 10:09:31;;;;;;;8.90;6.60;;;;;;;13.85;76.51;98603.45;101933;284;117134;-55
2023/04/01 10:13:03;;;;;;;5.30;4.80;;;;;;;14.00;76.21;98607.25;101623;284;594249;-60
2023/04/01 10:16:16;;;;;;;3.80;3.20;;;;;;;14.10;75.35;98609.48;102061;282;114048;-61
2023/04/01 10:19:33;;;;;;;3.30;2.90;;;;;;;14.21;74.61;98612.25;102075;282;93249;-54
2023/04/01 10:22:40;;;;;;;2.90;1.90;;;;;;;14.32;73.73;98614.59;102098;282;96550;-54
2023/04/01 10:25:51;;;;;;;2.50;2.10;;;;;;;14.57;74.07;98615.19;102086;283;117933;-55
2023/04/01 10:29:04;;;;;;;2.90;2.60;;;;;;;14.90;72.89;98613.27;102115;283;103982;-60
2023/04/01 10:32:20;;;;;;;3.50;2.90;;;;;;;15.16;72.93;98614.77;102062;282;114053;-55
2023/04/01 10:35:44;;;;;;;3.60;2.90;;;;;;;15.69;72.98;98608.66;102077;282;95141;-55
2023/04/01 10:38:47;;;;;;;3.80;3.40;;;;;;;15.95;71.54;98602.71;102124;282;95659;-59
2023/04/01 10:42:19;;;;;;;4.60;3.80;;;;;;;15.78;70.71;98605.86;102332;305;119408;-58
2023/04/01 10:45:50;;;;;;;4.00;3.50;;;;;;;15.32;70.79;98610.50;102513;267;105895;-59
2023/04/01 10:48:59;;;;;;;4.40;4.00;;;;;;;14.75;70.33;98618.59;102478;279;113682;-59
2023/04/01 10:52:05;;;;;;;4.70;4.10;;;;;;;14.24;71.44;98614.52;102463;279;94267;-60
2023/04/01 10:54:50;;;;;;;4.90;4.40;;;;;;;13.90;72.03;98609.90;102354;279;97022;-59
2023/04/01 10:58:13;;;;;;;4.70;4.20;;;;;;;13.65;73.04;98616.55;102493;279;117479;-59
2023/04/01 11:01:29;;;;;;;6.50;5.10;;;;;;;13.45;73.73;98616.56;102504;278;104981;-59
2023/04/01 11:04:40;;;;;;;4.90;4.40;;;;;;;13.39;73.94;98620.83;102213;279;113487;-55
2023/04/01 11:08:18;;;;;;;3.80;3.50;;;;;;;13.30;74.58;98625.42;102318;280;93701;-55
2023/04/01 11:11:37;;;;;;;4.10;3.50;;;;;;;13.29;75.40;98627.85;102180;280;97764;-55
2023/04/01 11:14:52;;;;;;;4.40;2.80;;;;;;;13.49;75.66;98632.34;102405;268;119424;-55
2023/04/01 11:18:27;;;;;;;10.00;6.40;;;;;;;13.49;75.87;98631.48;102354;280;106001;-56
2023/04/01 11:21:49;;;;;;;3.60;2.70;;;;;;;13.60;75.74;98636.41;102252;280;114035;-55
2023/04/01 11:25:02;;;;;;;3.50;2.40;;;;;;;13.81;75.85;98635.25;102321;280;93845;-55
2023/04/01 11:28:24;;;;;;;3.10;2.00;;;;;;;13.91;75.60;98633.16;102401;280;96719;-54
2023/04/01 11:31:28;;;;;;;2.30;1.80;;;;;;;14.03;74.76;98630.46;102336;280;119292;-62
2023/04/01 11:34:20;;;;;;;2.40;1.90;;;;;;;14.03;74.88;98632.48;102332;280;104257;-63
2023/04/01 11:37:09;;;;;;;2.30;1.80;;;;;;;14.10;74.53;98635.33;102327;268;114048;-60
2023/04/01 11:40:02;;;;;;;2.10;1.70;;;;;;;14.07;74.58;98637.67;102331;280;95091;-61
2023/04/01 11:42:46;;;;;;;2.00;1.60;;;;;;;14.19;74.73;98640.37;102363;280;95612;-56
2023/04/01 11:45:40;;;;;;;3.20;2.00;;;;;;;14.42;74.59;98641.66;102356;280;117661;-54
2023/04/01 11:48:53;;;;;;;5.40;3.80;;;;;;;14.62;74.34;98640.77;102345;280;105745;-55
2023/04/01 11:52:03;;;;;;;5.60;4.20;;;;;;;14.78;73.89;98647.10;102280;280;114161;-60
2023/04/01 11:55:21;;;;;;;2.10;1.40;;;;;;;14.95;73.52;98642.40;102315;280;93740;-64
2023/04/01 11:58:23;;;;;;;1.60;1.10;;;;;;;14.96;72.45;98641.10;102399;280;98085;-61
2023/04/01 12:01:23;;;;;;;1.60;1.10;;;;;;;14.99;72.27;98643.52;102372;280;118340;-56
2023/04/01 12:04:42;;;;;;;1.50;1.00;;;;;;;14.92;72.38;98639.50;102390;280;104567;-59
2023/04/01 12:07:36;;;;;;;1.10;0.80;;;;;;;14.78;72.58;98642.80;102384;280;113274;-55
2023/04/01 12:10:27;;;;;;;1.30;0.90;;;;;;;14.84;72.60;98635.85;102379;280;94267;-54
2023/04/01 12:13:19;;;;;;;2.40;1.00;;;;;;;14.93;72.32;98631.77;102408;268;98173;-56
2023/04/01 12:16:14;;;;;;;1.60;1.30;;;;;;;14.89;72.27;98634.96;102375;280;116787;-55
2023/04/01 12:18:58;;;;;;;3.10;2.00;;;;;;;14.91;72.06;98637.09;102326;280;106286;-59
2023/04/01 12:21:48;;;;;;;2.40;2.00;;;;;;;14.87;72.00;98640.42;102360;268;114580;-55
2023/04/01 12:24:53;;;;;;;2.40;1.90;;;;;;;14.80;72.23;98641.20;102731;277;93354;-55
2023/04/01 12:28:02;;;;;;;1.90;1.60;;;;;;;14.93;72.15;98640.77;102620;277;95694;-56
2023/04/01 12:30:59;;;;;;;1.70;1.40;;;;;;;15.15;71.62;98640.10;102762;277;118616;-54
2023/04/01 12:34:00;;;;;;;1.60;1.20;;;;;;;15.24;71.52;98644.25;102593;277;105945;-56
2023/04/01 12:37:08;;;;;;;3.10;2.40;;;;;;;15.15;71.06;98645.59;102504;277;116796;-56
2023/04/01 12:40:07;;;;;;;2.40;1.10;;;;;;;15.03;71.16;98650.63;102789;277;94212;-54
2023/04/01 12:43:03;;;;;;;1.50;1.10;;;;;;;14.94;71.11;98654.10;102748;277;96769;-54
2023/04/01 12:45:56;;;;;;;1.60;1.30;;;;;;;14.65;70.67;98654.71;102711;277;117936;-56
2023/04/01 12:49:08;;;;;;;1.60;1.20;;;;;;;14.65;70.66;98655.10;102758;277;106118;-55
2023/04/01 12:52:18;;;;;;;1.30;1.00;;;;;;;14.40;71.08;98657.02;102752;277;114289;-53
2023/04/01 12:55:24;;;;;;;1.50;1.20;;;;;;;14.19;70.89;98658.45;102767;277;94329;-54
2023/04/01 12:58:45;;;;;;;2.70;1.70;;;;;;;13.81;71.19;98671.09;102667;277;97743;-53
2023/04/01 13:02:00;;;;;;;1.90;1.70;;;;;;;13.36;72.21;98677.25;102751;277;118625;-59
2023/04/01 13:05:16;;;;;;;2.80;1.80;;;;;;;12.96;72.81;98681.77;102556;277;106128;-55
2023/04/01 13:08:37;;;;;;;2.30;1.90;;;;;;;12.61;73.67;98681.70;102747;277;112937;-56
2023/04/01 13:11:28;;;;;;;2.50;1.40;;;;;;;12.29;74.51;98683.43;102758;277;97348;-59